x

Passage Island, Mi (pilm4) Weather Station

11:00am - Fri 26th Aug 2016 All times are CDT. -5 hours from GMT.

  • Wind
    7mph, 8mph gusts
  • Air Temp 59°f
  • Sea Pressure 1021.6mb
  • Passage Island, Mi
  • Passage Island, Mi

More Historic Weather Station data

Upgrade to MSW Pro to gain access to the past 30 days of data for over 8000 Wavebouys and Weather Stations around the globe.

Join Pro

Comparision Forecast

View Surf forecast
   
Fri 08/26 11:00am 7 8 mph 1021.6mb 59f
10:00am 6
mph
1021.4mb 58f
9:00am 8 11 mph 1020.7mb 57f
8:00am 9 11 mph 1020.3mb 57f
7:00am 11 15 mph 1019.4mb 57f
6:00am 13 17 mph 1018.4mb 57f
5:00am 13 18 mph 1018.1mb 58f
4:00am 11 17 mph 1017.4mb 59f
3:00am 10 14 mph 1017mb 60f
2:00am 10 13 mph 1016.3mb 62f
1:00am 10 13 mph 1015.8mb 62f
12:00am 16 17 mph 1014.9mb 64f
Thu 08/25 11:00pm 8 9 mph 1014.4mb 64f
10:00pm 7 8 mph 1014.1mb 64f
9:00pm 24 25 mph 1013.4mb 66f
8:00pm 23 24 mph 1012.7mb 66f
7:00pm 24 26 mph 1012mb 67f
6:00pm 32 34 mph 1011.5mb 66f
5:00pm 33 36 mph 1011.1mb 69f
4:00pm 17 20 mph 1011.5mb 67f
3:00pm 18 22 mph 1011.5mb 66f
2:00pm 18 20 mph 1011.7mb 65f
1:00pm 16 17 mph 1012mb 65f
12:00pm 11 13 mph 1012.1mb 65f
11:00am 21 22 mph 1011.9mb 65f
10:00am 23 24 mph 1012mb 65f
9:00am 22 24 mph 1012mb 65f
8:00am 20 22 mph 1012.2mb 65f
7:00am 23 24 mph 1012mb 65f
6:00am 24 25 mph 1011.5mb 65f
5:00am 24 25 mph 1011mb 66f
4:00am 22 23 mph 1010.5mb 66f
3:00am 22
mph
1010.5mb 66f
2:00am 21 22 mph 1010.4mb 67f
1:00am 20 21 mph 1010.3mb 67f
12:00am 18
mph
1010mb 67f
Wed 08/24 11:00pm 17 18 mph 1010.1mb 65f
10:00pm 13
mph
1010mb 65f
9:00pm 15 17 mph 1009.9mb 68f
8:00pm 8
mph
1009.8mb 66f
7:00pm 11 13 mph 1009.5mb 66f
6:00pm 21 22 mph 1009.1mb 67f
5:00pm 14 17 mph 1009mb 66f
4:00pm 13 14 mph 1009.5mb 66f
3:00pm 17 18 mph 1009.1mb 66f
2:00pm 5 6 mph 1009.1mb 67f
1:00pm 9
mph
1009.6mb 66f
12:00pm 10 11 mph 1010mb 67f
11:00am 11
mph
1010.4mb 65f
10:00am 11
mph
1010mb 65f
9:00am 10 11 mph 1010.2mb 65f
8:00am 11 13 mph 1010.6mb 66f
7:00am 15
mph
1011.5mb 66f
6:00am 11 13 mph 1011.7mb 66f
5:00am 14
mph
1011.9mb 66f
4:00am 14 15 mph 1012mb 68f
3:00am 17 20 mph 1012.6mb 66f
2:00am 16 17 mph 1012.2mb 66f
1:00am 22
mph
1012.5mb 68f
12:00am 25 26 mph 1012.7mb 69f
Tue 08/23 11:00pm 22 23 mph 1012.9mb 68f
10:00pm 22
mph
1012.7mb 69f
9:00pm 16
mph
1013.2mb 69f
8:00pm 16
mph
1013.2mb 68f
7:00pm 15 16 mph 1013.5mb 65f
6:00pm 11 13 mph 1013.8mb 66f
5:00pm 13 14 mph 1014.2mb 65f
4:00pm 15 17 mph 1014.4mb 67f
3:00pm 13
mph
1014.4mb 68f
2:00pm 15 16 mph 1014.8mb 65f
1:00pm 15 16 mph 1014.9mb 64f
12:00pm 18 20 mph 1014.9mb 64f
11:00am 18 20 mph 1014.8mb 64f
10:00am 15 16 mph 1014.8mb 64f
9:00am 17 18 mph 1014.7mb 66f
8:00am 11 13 mph 1014.8mb 65f
7:00am 11 13 mph 1014.8mb 66f
6:00am 15 16 mph 1014.4mb 65f
5:00am 21 22 mph 1013.7mb 65f
4:00am 21 23 mph 1013.4mb 65f
3:00am 24 28 mph 1013.3mb 65f
2:00am 28 31 mph 1013mb 66f
1:00am 31 34 mph 1012.6mb 67f
12:00am 29 31 mph 1012.6mb 67f
Mon 08/22 11:00pm 26 30 mph 1012.7mb 67f
10:00pm 24 26 mph 1012.7mb 67f
9:00pm 22 23 mph 1012.7mb 69f
8:00pm 15
mph
1012.5mb 67f
7:00pm 16 17 mph 1012.2mb 67f
6:00pm 10 11 mph 1012.6mb 66f